Time;durP1;ratioP1;P1;durP2;ratioP2;P2;SDS_P1;SDS_P2;PMS_P1;PMS_P2;Temp;Humidity;BMP_temperature;BMP_pressure;BME280_temperature;BME280_humidity;BME280_pressure;Samples;Min_cycle;Max_cycle;Signal;HPM_P1;HPM_P2
2023/08/10 00:00:49;;;;;;;4.72;1.45;;;;;;;;;;5035669;28;20059;-70
2023/08/10 00:03:15;;;;;;;4.55;1.40;;;;;;;;;;5037465;28;20061;-70
2023/08/10 00:05:42;;;;;;;3.97;1.00;;;;;;;;;;5019421;28;20104;-67
2023/08/10 00:08:09;;;;;;;7.47;1.35;;;;;;;;;;5042833;28;20115;-66
2023/08/10 00:10:38;;;;;;;3.15;1.40;;;;;;;;;;5045878;28;20053;-68
2023/08/10 00:13:05;;;;;;;4.65;1.52;;;;;;;;;;5031887;28;20534;-69
2023/08/10 00:15:32;;;;;;;5.40;1.35;;;;;;;;;;5023649;28;20057;-68
2023/08/10 00:17:59;;;;;;;4.22;1.40;;;;;;;;;;5058202;28;20064;-70
2023/08/10 00:20:26;;;;;;;1.55;1.08;;;;;;;;;;5054091;28;20119;-69
2023/08/10 00:22:53;;;;;;;4.57;1.27;;;;;;;;;;5043238;28;20217;-68
2023/08/10 00:25:21;;;;;;;8.65;1.52;;;;;;;;;;5034309;28;20048;-68
2023/08/10 00:27:50;;;;;;;5.53;1.30;;;;;;;;;;5067437;28;20079;-68
2023/08/10 00:30:17;;;;;;;5.15;1.45;;;;;;;;;;5041766;28;20484;-70
2023/08/10 00:32:44;;;;;;;4.32;1.05;;;;;;;;;;5045168;28;20118;-69
2023/08/10 00:35:11;;;;;;;3.10;1.10;;;;;;;;;;5040273;28;20137;-69
2023/08/10 00:37:37;;;;;;;3.20;1.10;;;;;;;;;;5040701;28;20068;-68
2023/08/10 00:40:09;;;;;;;4.43;1.40;;;;;;;;;;5058886;28;20159;-67
2023/08/10 00:42:35;;;;;;;2.65;1.50;;;;;;;;;;5038647;28;20064;-71
2023/08/10 00:45:04;;;;;;;6.65;1.58;;;;;;;;;;5057799;28;20064;-69
2023/08/10 00:47:31;;;;;;;;;;;;;;;;;;5037939;28;20071;-68
2023/08/10 00:49:58;;;;;;;2.28;0.93;;;;;;;;;;5044108;28;19920;-68
2023/08/10 00:52:25;;;;;;;3.40;1.17;;;;;;;;;;5053661;27;20383;-70
2023/08/10 00:54:52;;;;;;;6.70;1.20;;;;;;;;;;5059891;28;20060;-71
2023/08/10 00:57:18;;;;;;;4.80;1.42;;;;;;;;;;5047694;28;20534;-68
2023/08/10 00:59:47;;;;;;;10.20;1.45;;;;;;;;;;5076944;28;20059;-70
2023/08/10 01:02:15;;;;;;;;;;;;;;;;;;5059448;28;20052;-68
2023/08/10 01:04:43;;;;;;;2.47;1.10;;;;;;;;;;5075482;28;19920;-68
2023/08/10 01:07:20;;;;;;;2.88;1.10;;;;;;;;;;5058357;28;20111;-71
2023/08/10 01:09:53;;;;;;;4.63;1.13;;;;;;;;;;5040832;28;20052;-68
2023/08/10 01:12:26;;;;;;;7.45;1.58;;;;;;;;;;5033354;28;20126;-69
2023/08/10 01:15:00;;;;;;;6.70;1.48;;;;;;;;;;5054793;28;20056;-71
2023/08/10 01:17:33;;;;;;;10.13;1.67;;;;;;;;;;5018037;28;20065;-71
2023/08/10 01:20:05;;;;;;;3.58;1.70;;;;;;;;;;5020850;28;20095;-70
2023/08/10 01:22:47;;;;;;;4.90;1.42;;;;;;;;;;5050462;28;20064;-68
2023/08/10 01:25:17;;;;;;;2.08;1.00;;;;;;;;;;5041968;28;20065;-71
2023/08/10 01:27:45;;;;;;;5.03;1.20;;;;;;;;;;5057216;28;20057;-70
2023/08/10 01:30:13;;;;;;;2.70;1.10;;;;;;;;;;5056849;28;20123;-69
2023/08/10 01:32:40;;;;;;;5.60;1.40;;;;;;;;;;5038429;28;20132;-68
2023/08/10 01:35:10;;;;;;;3.80;1.30;;;;;;;;;;5032744;28;20080;-70
2023/08/10 01:37:37;;;;;;;6.18;1.30;;;;;;;;;;5037486;28;20134;-69
2023/08/10 01:40:07;;;;;;;3.17;1.10;;;;;;;;;;5041168;28;20542;-68
2023/08/10 01:42:36;;;;;;;5.00;1.45;;;;;;;;;;5039755;28;20057;-69
2023/08/10 01:45:06;;;;;;;2.88;1.27;;;;;;;;;;5053784;28;20057;-69
2023/08/10 01:47:43;;;;;;;2.90;1.20;;;;;;;;;;5029632;28;20511;-67
2023/08/10 01:50:10;;;;;;;5.55;1.13;;;;;;;;;;5044169;28;20131;-66
2023/08/10 01:52:41;;;;;;;4.60;1.20;;;;;;;;;;5056961;28;20514;-72
2023/08/10 01:55:12;;;;;;;5.55;1.30;;;;;;;;;;5058445;28;20060;-67
2023/08/10 01:57:40;;;;;;;5.38;1.52;;;;;;;;;;5059857;28;20052;-71
2023/08/10 02:00:09;;;;;;;2.35;1.38;;;;;;;;;;5057740;28;20056;-69
2023/08/10 02:02:36;;;;;;;3.40;1.20;;;;;;;;;;5039466;28;20519;-67
2023/08/10 02:05:05;;;;;;;2.20;1.10;;;;;;;;;;5019539;28;20119;-69
2023/08/10 02:07:32;;;;;;;4.10;1.55;;;;;;;;;;5027341;28;20067;-69
2023/08/10 02:10:02;;;;;;;2.65;1.27;;;;;;;;;;5018615;28;20069;-71
2023/08/10 02:12:29;;;;;;;4.32;1.27;;;;;;;;;;5010320;28;20046;-71
2023/08/10 02:14:58;;;;;;;4.28;1.35;;;;;;;;;;5004973;28;20053;-71
2023/08/10 02:17:25;;;;;;;2.10;1.08;;;;;;;;;;5023328;28;20149;-69
2023/08/10 02:19:52;;;;;;;2.40;1.33;;;;;;;;;;5035006;28;20057;-69
2023/08/10 02:22:19;;;;;;;4.18;1.30;;;;;;;;;;5046755;28;20055;-69
2023/08/10 02:24:46;;;;;;;3.33;1.23;;;;;;;;;;5034376;28;20088;-68
2023/08/10 02:27:13;;;;;;;3.03;1.35;;;;;;;;;;5042176;28;20060;-68
2023/08/10 02:29:45;;;;;;;3.55;1.40;;;;;;;;;;5037624;28;20435;-71
2023/08/10 02:32:16;;;;;;;2.83;1.30;;;;;;;;;;5039159;28;20094;-68
2023/08/10 02:34:43;;;;;;;3.20;1.20;;;;;;;;;;4958687;28;20050;-67
2023/08/10 02:37:10;;;;;;;3.55;1.40;;;;;;;;;;5001348;28;20107;-67
2023/08/10 02:39:37;;;;;;;3.92;1.20;;;;;;;;;;5034477;28;20085;-68
2023/08/10 02:42:04;;;;;;;3.45;1.25;;;;;;;;;;5054928;28;20049;-70
2023/08/10 02:44:37;;;;;;;2.25;1.00;;;;;;;;;;5031103;28;20214;-67
2023/08/10 02:47:04;;;;;;;3.08;1.27;;;;;;;;;;5036466;28;20203;-67
2023/08/10 02:49:33;;;;;;;6.30;1.35;;;;;;;;;;5018391;28;20312;-69
2023/08/10 02:51:59;;;;;;;;;;;;;;;;;;5054700;28;20061;-67
2023/08/10 02:54:26;;;;;;;2.88;1.20;;;;;;;;;;5042736;28;19925;-67
2023/08/10 02:56:53;;;;;;;5.85;1.65;;;;;;;;;;5038883;28;20099;-70
2023/08/10 02:59:26;;;;;;;2.90;1.42;;;;;;;;;;5041165;28;20055;-69
2023/08/10 03:01:53;;;;;;;4.65;1.25;;;;;;;;;;5039374;28;20049;-70
2023/08/10 03:04:20;;;;;;;2.33;1.08;;;;;;;;;;5050476;28;20060;-70
2023/08/10 03:06:48;;;;;;;3.53;1.08;;;;;;;;;;5058240;28;20052;-68
2023/08/10 03:09:15;;;;;;;5.65;1.40;;;;;;;;;;5059338;28;20156;-67
2023/08/10 03:11:41;;;;;;;4.88;1.77;;;;;;;;;;5053257;28;20053;-70
2023/08/10 03:14:08;;;;;;;4.70;1.48;;;;;;;;;;5027677;28;20067;-70
2023/08/10 03:16:34;;;;;;;1.70;1.10;;;;;;;;;;5015424;28;20226;-67
2023/08/10 03:19:02;;;;;;;3.65;1.50;;;;;;;;;;5017120;28;20408;-68
2023/08/10 03:21:28;;;;;;;4.63;1.50;;;;;;;;;;5020906;28;20212;-71
2023/08/10 03:23:57;;;;;;;4.78;1.40;;;;;;;;;;5015454;28;20072;-69
2023/08/10 03:26:24;;;;;;;5.45;1.30;;;;;;;;;;5029299;28;20070;-70
2023/08/10 03:28:50;;;;;;;2.78;1.23;;;;;;;;;;5019000;28;20079;-70
2023/08/10 03:31:17;;;;;;;2.15;0.95;;;;;;;;;;5053460;28;20168;-71
2023/08/10 03:33:44;;;;;;;5.65;1.58;;;;;;;;;;5016430;28;20049;-69
2023/08/10 03:36:15;;;;;;;1.98;1.10;;;;;;;;;;5045681;28;20085;-69
2023/08/10 03:38:41;;;;;;;6.43;1.25;;;;;;;;;;5033364;28;20064;-69
2023/08/10 03:41:10;;;;;;;3.58;1.27;;;;;;;;;;5018653;28;20049;-68
2023/08/10 03:43:36;;;;;;;4.00;1.20;;;;;;;;;;5033367;28;20050;-68
2023/08/10 03:46:05;;;;;;;3.88;1.40;;;;;;;;;;5014689;28;20072;-67
2023/08/10 03:48:32;;;;;;;2.42;1.30;;;;;;;;;;5017652;28;20073;-69
2023/08/10 03:50:59;;;;;;;4.32;1.30;;;;;;;;;;5056262;28;20073;-70
2023/08/10 03:53:26;;;;;;;5.70;1.45;;;;;;;;;;5055640;28;20068;-68
2023/08/10 03:55:53;;;;;;;4.03;1.63;;;;;;;;;;5019923;28;20132;-70
2023/08/10 03:58:21;;;;;;;3.58;1.60;;;;;;;;;;5013664;28;20144;-71
2023/08/10 04:00:48;;;;;;;4.32;1.63;;;;;;;;;;5038086;28;20053;-70
2023/08/10 04:03:16;;;;;;;4.43;1.50;;;;;;;;;;5039686;28;20053;-70
2023/08/10 04:05:43;;;;;;;3.85;1.75;;;;;;;;;;5019821;28;20053;-70
2023/08/10 04:08:10;;;;;;;4.40;1.80;;;;;;;;;;5022648;28;20099;-68
2023/08/10 04:10:37;;;;;;;4.25;1.90;;;;;;;;;;5021950;28;20072;-68
2023/08/10 04:13:04;;;;;;;3.58;1.65;;;;;;;;;;5034762;28;20056;-68
2023/08/10 04:15:33;;;;;;;3.85;1.95;;;;;;;;;;5063670;28;20110;-70
2023/08/10 04:17:59;;;;;;;5.13;1.80;;;;;;;;;;5047127;28;20362;-69
2023/08/10 04:20:26;;;;;;;4.90;1.48;;;;;;;;;;5034619;28;20107;-68
2023/08/10 04:22:54;;;;;;;5.78;1.90;;;;;;;;;;5058547;28;20053;-69
2023/08/10 04:25:21;;;;;;;5.43;1.88;;;;;;;;;;5047740;28;20080;-70
2023/08/10 04:27:48;;;;;;;7.10;1.95;;;;;;;;;;5074519;28;20060;-68
2023/08/10 04:30:14;;;;;;;7.10;1.63;;;;;;;;;;5036643;28;20081;-68
2023/08/10 04:32:43;;;;;;;8.45;2.00;;;;;;;;;;5042247;28;20216;-67
2023/08/10 04:35:11;;;;;;;3.78;1.80;;;;;;;;;;5034809;28;20053;-67
2023/08/10 04:37:38;;;;;;;4.43;2.00;;;;;;;;;;5041451;28;20053;-68
2023/08/10 04:40:09;;;;;;;6.00;2.03;;;;;;;;;;5040122;28;20098;-68
2023/08/10 04:42:38;;;;;;;12.25;5.40;;;;;;;;;;5051293;28;20117;-67
2023/08/10 04:45:06;;;;;;;10.55;3.97;;;;;;;;;;5041420;28;20041;-68
2023/08/10 04:47:32;;;;;;;6.20;2.58;;;;;;;;;;5040193;28;20138;-67
2023/08/10 04:50:04;;;;;;;4.50;2.17;;;;;;;;;;5038491;28;20054;-67
2023/08/10 04:52:31;;;;;;;3.85;1.70;;;;;;;;;;5033631;28;21565;-70
2023/08/10 04:54:58;;;;;;;6.78;2.17;;;;;;;;;;5036387;28;20048;-69
2023/08/10 04:57:26;;;;;;;5.57;2.05;;;;;;;;;;5041387;28;20539;-67
2023/08/10 04:59:52;;;;;;;9.40;2.33;;;;;;;;;;5039506;28;20184;-68
2023/08/10 05:02:19;;;;;;;6.05;2.15;;;;;;;;;;5037472;28;20191;-70
2023/08/10 05:04:46;;;;;;;5.35;1.98;;;;;;;;;;5051206;28;20049;-68
2023/08/10 05:07:15;;;;;;;6.70;2.10;;;;;;;;;;5042846;28;20106;-69
2023/08/10 05:09:42;;;;;;;5.78;2.40;;;;;;;;;;5037993;28;20134;-68
2023/08/10 05:12:09;;;;;;;5.35;1.98;;;;;;;;;;5039599;28;20052;-70
2023/08/10 05:14:36;;;;;;;5.05;2.00;;;;;;;;;;5030530;28;20068;-70
2023/08/10 05:17:06;;;;;;;5.35;2.38;;;;;;;;;;5038976;28;20057;-68
2023/08/10 05:19:36;;;;;;;10.98;2.63;;;;;;;;;;5039428;28;20136;-70
2023/08/10 05:22:03;;;;;;;7.05;2.40;;;;;;;;;;5038961;28;20128;-68
2023/08/10 05:24:32;;;;;;;7.45;2.65;;;;;;;;;;5029604;28;20056;-69
2023/08/10 05:27:00;;;;;;;7.18;2.25;;;;;;;;;;5055972;28;20067;-69
2023/08/10 05:29:27;;;;;;;6.00;2.60;;;;;;;;;;5041733;28;20052;-70
2023/08/10 05:31:54;;;;;;;5.05;2.17;;;;;;;;;;5056665;28;20064;-67
2023/08/10 05:34:21;;;;;;;5.20;2.42;;;;;;;;;;4999292;28;20076;-69
2023/08/10 05:36:48;;;;;;;8.15;2.90;;;;;;;;;;5038689;28;20057;-68
2023/08/10 05:39:18;;;;;;;9.55;3.25;;;;;;;;;;5035090;28;20053;-70
2023/08/10 05:41:46;;;;;;;10.30;4.15;;;;;;;;;;5038133;28;20065;-68
2023/08/10 05:44:13;;;;;;;18.13;6.85;;;;;;;;;;5007213;28;20090;-71
2023/08/10 05:46:40;;;;;;;11.45;4.45;;;;;;;;;;5043148;28;20063;-71
2023/08/10 05:49:07;;;;;;;7.80;3.78;;;;;;;;;;5039281;28;20052;-70
2023/08/10 05:51:37;;;;;;;8.27;3.47;;;;;;;;;;5055522;28;20052;-71
2023/08/10 05:54:05;;;;;;;11.32;4.15;;;;;;;;;;5027016;28;20120;-69
2023/08/10 05:56:33;;;;;;;8.85;4.57;;;;;;;;;;5016797;28;20057;-69
2023/08/10 05:59:02;;;;;;;12.70;5.85;;;;;;;;;;5019549;28;20057;-69
2023/08/10 06:01:32;;;;;;;11.57;5.80;;;;;;;;;;5024661;28;20145;-69
2023/08/10 06:03:59;;;;;;;9.57;4.07;;;;;;;;;;4956031;28;20116;-72
2023/08/10 06:06:27;;;;;;;12.33;4.00;;;;;;;;;;5009635;28;20057;-72
2023/08/10 06:08:54;;;;;;;9.55;3.58;;;;;;;;;;5036795;28;20045;-71
2023/08/10 06:11:21;;;;;;;15.15;4.22;;;;;;;;;;5040775;28;20065;-72
2023/08/10 06:13:48;;;;;;;11.20;4.15;;;;;;;;;;5074594;28;20061;-70
2023/08/10 06:16:16;;;;;;;11.93;4.43;;;;;;;;;;5049019;28;20078;-68
2023/08/10 06:18:44;;;;;;;10.85;4.10;;;;;;;;;;5049312;28;20066;-70
2023/08/10 06:21:10;;;;;;;9.82;4.00;;;;;;;;;;5040585;28;20053;-70
2023/08/10 06:23:37;;;;;;;11.35;4.60;;;;;;;;;;5039092;28;20088;-70
2023/08/10 06:26:05;;;;;;;15.63;4.95;;;;;;;;;;5052505;28;20187;-70
2023/08/10 06:28:32;;;;;;;16.67;5.30;;;;;;;;;;5052713;28;20132;-71
2023/08/10 06:30:59;;;;;;;15.73;4.88;;;;;;;;;;5042504;28;20057;-71
2023/08/10 06:33:28;;;;;;;11.73;4.90;;;;;;;;;;5039190;28;20053;-70
2023/08/10 06:35:55;;;;;;;11.75;4.63;;;;;;;;;;5018606;28;20068;-70
2023/08/10 06:38:22;;;;;;;11.50;4.60;;;;;;;;;;5050512;28;20088;-70
2023/08/10 06:40:49;;;;;;;12.55;4.93;;;;;;;;;;5050736;28;20053;-71
2023/08/10 06:43:18;;;;;;;19.23;4.97;;;;;;;;;;5060337;28;20499;-70
2023/08/10 06:45:45;;;;;;;13.38;5.65;;;;;;;;;;5053631;28;20064;-70
2023/08/10 06:48:13;;;;;;;11.25;4.65;;;;;;;;;;5052635;28;20057;-70
2023/08/10 06:50:41;;;;;;;13.70;4.93;;;;;;;;;;5057994;28;20060;-70
2023/08/10 06:53:08;;;;;;;13.15;5.47;;;;;;;;;;5060693;28;20111;-70
2023/08/10 06:55:36;;;;;;;17.05;6.70;;;;;;;;;;5071458;28;20232;-72
2023/08/10 06:58:03;;;;;;;13.55;6.28;;;;;;;;;;5075173;28;20109;-70
2023/08/10 07:00:31;;;;;;;14.30;5.70;;;;;;;;;;5070004;28;20040;-71
2023/08/10 07:02:59;;;;;;;9.40;4.63;;;;;;;;;;5060016;28;20055;-71
2023/08/10 07:05:39;;;;;;;9.18;4.40;;;;;;;;;;5012965;28;20064;-71
2023/08/10 07:08:14;;;;;;;9.15;3.83;;;;;;;;;;5001702;28;20120;-70
2023/08/10 07:10:42;;;;;;;9.27;4.55;;;;;;;;;;4998333;28;20050;-71
2023/08/10 07:13:09;;;;;;;8.35;4.20;;;;;;;;;;5008582;28;20064;-71
2023/08/10 07:15:35;;;;;;;9.23;4.32;;;;;;;;;;5034850;28;20067;-72
2023/08/10 07:18:03;;;;;;;10.95;4.40;;;;;;;;;;5055092;28;20076;-70
2023/08/10 07:20:30;;;;;;;7.63;3.72;;;;;;;;;;5033630;28;20060;-72
2023/08/10 07:22:57;;;;;;;10.50;4.38;;;;;;;;;;5058201;28;20152;-71
2023/08/10 07:25:27;;;;;;;11.20;4.13;;;;;;;;;;5038593;28;20048;-70
2023/08/10 07:27:54;;;;;;;8.98;3.80;;;;;;;;;;5045231;28;20044;-71
2023/08/10 07:30:30;;;;;;;10.45;3.47;;;;;;;;;;5056352;28;20132;-70
2023/08/10 07:32:57;;;;;;;11.70;3.65;;;;;;;;;;5046160;28;20135;-71
2023/08/10 07:35:24;;;;;;;9.40;3.75;;;;;;;;;;5040714;28;20083;-69
2023/08/10 07:37:51;;;;;;;7.20;3.47;;;;;;;;;;5045617;28;20049;-71
2023/08/10 07:40:20;;;;;;;9.20;3.47;;;;;;;;;;5057775;28;20045;-73
2023/08/10 07:42:49;;;;;;;9.15;3.58;;;;;;;;;;5060313;28;20177;-71
2023/08/10 07:45:16;;;;;;;6.97;3.00;;;;;;;;;;5040719;28;20055;-70
2023/08/10 07:47:47;;;;;;;8.20;3.33;;;;;;;;;;5041987;28;20061;-71
2023/08/10 07:50:15;;;;;;;6.88;2.85;;;;;;;;;;5035679;28;20119;-73
2023/08/10 07:52:42;;;;;;;8.53;3.13;;;;;;;;;;5022663;28;20049;-72
2023/08/10 07:55:11;;;;;;;8.23;3.08;;;;;;;;;;5042968;28;20060;-72
2023/08/10 07:57:38;;;;;;;9.40;3.40;;;;;;;;;;5060818;28;20073;-69
2023/08/10 08:00:13;;;;;;;7.28;3.15;;;;;;;;;;5044471;28;20080;-71
2023/08/10 08:02:42;;;;;;;7.50;2.90;;;;;;;;;;5042021;28;20077;-71
2023/08/10 08:05:09;;;;;;;8.65;3.22;;;;;;;;;;5047781;28;20059;-72
2023/08/10 08:07:37;;;;;;;7.97;2.90;;;;;;;;;;5076481;28;20062;-70
2023/08/10 08:10:05;;;;;;;7.68;2.67;;;;;;;;;;5061600;28;20053;-72
2023/08/10 08:12:32;;;;;;;5.85;2.60;;;;;;;;;;5054457;28;20053;-73
2023/08/10 08:14:59;;;;;;;8.93;2.60;;;;;;;;;;5024180;28;20052;-72
2023/08/10 08:17:27;;;;;;;6.57;2.63;;;;;;;;;;5071720;28;20119;-73
2023/08/10 08:19:57;;;;;;;5.70;2.15;;;;;;;;;;5075518;28;20136;-69
2023/08/10 08:22:24;;;;;;;5.93;2.50;;;;;;;;;;5068362;28;20052;-72
2023/08/10 08:24:52;;;;;;;6.40;2.20;;;;;;;;;;4999590;28;20052;-73
2023/08/10 08:27:22;;;;;;;6.60;2.73;;;;;;;;;;5013603;28;20058;-71
2023/08/10 08:29:51;;;;;;;4.90;2.22;;;;;;;;;;4984666;28;20070;-72
2023/08/10 08:32:18;;;;;;;5.82;2.33;;;;;;;;;;4981771;28;20133;-72
2023/08/10 08:34:46;;;;;;;4.80;2.13;;;;;;;;;;5009509;28;20057;-72
2023/08/10 08:37:12;;;;;;;5.53;1.83;;;;;;;;;;5024732;28;20053;-71
2023/08/10 08:39:39;;;;;;;15.57;6.55;;;;;;;;;;5027556;28;20231;-71
2023/08/10 08:42:08;;;;;;;9.35;4.00;;;;;;;;;;5043798;28;20099;-72
2023/08/10 08:44:34;;;;;;;6.63;2.65;;;;;;;;;;5011326;28;20714;-71
2023/08/10 08:47:07;;;;;;;7.03;2.40;;;;;;;;;;5046760;28;20061;-72
2023/08/10 08:49:36;;;;;;;7.82;2.35;;;;;;;;;;5039051;28;20048;-71
2023/08/10 08:52:08;;;;;;;3.85;1.80;;;;;;;;;;5077010;28;20084;-73
2023/08/10 08:54:35;;;;;;;5.30;2.45;;;;;;;;;;5038255;28;20057;-71
2023/08/10 08:57:05;;;;;;;6.93;2.38;;;;;;;;;;5065511;28;20056;-73
2023/08/10 09:00:04;;;;;;;;;;;;;;;;;;;;;
2023/08/10 09:02:44;;;;;;;6.85;2.33;;;;;;;;;;5057111;28;20048;-72
2023/08/10 09:05:14;;;;;;;6.43;1.92;;;;;;;;;;5013256;28;20051;-72
2023/08/10 09:07:44;;;;;;;8.15;2.10;;;;;;;;;;5047236;28;20045;-71
2023/08/10 09:10:12;;;;;;;5.05;2.00;;;;;;;;;;5056579;28;20056;-71
2023/08/10 09:12:41;;;;;;;3.30;1.85;;;;;;;;;;5050230;28;20048;-71
2023/08/10 09:15:12;;;;;;;5.90;2.30;;;;;;;;;;5062579;28;20057;-71
2023/08/10 09:17:46;;;;;;;7.97;2.15;;;;;;;;;;5064084;28;20055;-72
2023/08/10 09:20:42;;;;;;;3.50;1.80;;;;;;;;;;5059219;28;20050;-72
2023/08/10 09:38:36;;;;;;;5.75;1.60;;;;;;;;;;5093588;27;20381;-67
2023/08/10 09:41:11;;;;;;;15.05;6.45;;;;;;;;;;5096931;27;20056;-67
2023/08/10 09:43:38;;;;;;;8.65;3.80;;;;;;;;;;5079602;27;20139;-68
2023/08/10 09:46:09;;;;;;;3.80;2.13;;;;;;;;;;5046329;28;20044;-66
2023/08/10 09:48:41;;;;;;;3.17;1.50;;;;;;;;;;5054597;28;22297;-69
2023/08/10 09:51:09;;;;;;;4.68;1.73;;;;;;;;;;5047314;28;20057;-68
2023/08/10 09:53:41;;;;;;;3.88;1.60;;;;;;;;;;5036041;28;20065;-64
2023/08/10 09:56:08;;;;;;;5.50;1.60;;;;;;;;;;5034423;28;20057;-66
2023/08/10 09:58:38;;;;;;;2.83;1.40;;;;;;;;;;5020584;28;20084;-67
2023/08/10 10:01:09;;;;;;;3.15;1.45;;;;;;;;;;5018919;28;20050;-67
2023/08/10 10:03:36;;;;;;;3.50;1.55;;;;;;;;;;5019017;28;20072;-68
2023/08/10 10:06:03;;;;;;;3.67;1.65;;;;;;;;;;5022379;28;20053;-63
2023/08/10 10:08:34;;;;;;;3.50;1.60;;;;;;;;;;5035473;28;20057;-66
2023/08/10 10:11:07;;;;;;;4.88;1.77;;;;;;;;;;5037496;28;20056;-65
2023/08/10 10:13:34;;;;;;;3.38;1.60;;;;;;;;;;5069163;28;20076;-68
2023/08/10 10:16:01;;;;;;;3.55;1.60;;;;;;;;;;5045384;28;20215;-65
2023/08/10 10:18:28;;;;;;;2.22;1.33;;;;;;;;;;5032128;28;20060;-65
2023/08/10 10:20:56;;;;;;;4.80;1.50;;;;;;;;;;5040423;28;20134;-69
2023/08/10 10:23:26;;;;;;;6.68;1.83;;;;;;;;;;5038870;28;20131;-66
2023/08/10 10:25:58;;;;;;;3.28;1.35;;;;;;;;;;5025325;28;20052;-69
2023/08/10 10:28:28;;;;;;;6.90;1.80;;;;;;;;;;5043300;28;20115;-67
2023/08/10 10:31:03;;;;;;;4.47;1.90;;;;;;;;;;5039417;28;20067;-70
2023/08/10 10:33:30;;;;;;;7.32;3.55;;;;;;;;;;5038924;28;20045;-69
2023/08/10 10:36:11;;;;;;;14.30;7.97;;;;;;;;;;5038483;28;20053;-65
2023/08/10 10:38:47;;;;;;;6.18;2.50;;;;;;;;;;5032407;28;20061;-65
2023/08/10 10:41:15;;;;;;;6.22;1.85;;;;;;;;;;5040480;28;20069;-71
2023/08/10 10:43:55;;;;;;;3.53;1.58;;;;;;;;;;5038994;28;20053;-68
2023/08/10 10:46:40;;;;;;;12.98;5.28;;;;;;;;;;5011216;28;20067;-65
2023/08/10 10:49:09;;;;;;;3.97;1.88;;;;;;;;;;5027337;28;20080;-68
2023/08/10 10:52:01;;;;;;;12.07;1.67;;;;;;;;;;5022734;28;20412;-68
2023/08/10 10:54:34;;;;;;;4.78;1.60;;;;;;;;;;4997400;28;20103;-65
2023/08/10 10:57:01;;;;;;;4.35;1.60;;;;;;;;;;5019180;28;20048;-65
2023/08/10 10:59:30;;;;;;;6.35;2.65;;;;;;;;;;5043095;28;20140;-66
2023/08/10 11:01:57;;;;;;;;;;;;;;;;;;5044927;28;20060;-66
2023/08/10 11:04:26;;;;;;;5.90;2.20;;;;;;;;;;5034679;28;19921;-66
2023/08/10 11:06:59;;;;;;;5.55;1.70;;;;;;;;;;5007103;28;20045;-69
2023/08/10 11:09:28;;;;;;;6.00;1.95;;;;;;;;;;5024298;28;20101;-68
2023/08/10 11:11:55;;;;;;;5.82;2.00;;;;;;;;;;5027119;28;20053;-65
2023/08/10 11:14:22;;;;;;;3.70;1.63;;;;;;;;;;5035487;28;20072;-65
2023/08/10 11:16:58;;;;;;;4.57;1.40;;;;;;;;;;5031349;28;20049;-64
2023/08/10 11:19:29;;;;;;;6.35;1.27;;;;;;;;;;5022496;28;20056;-67
2023/08/10 11:22:24;;;;;;;2.95;1.27;;;;;;;;;;5028298;28;20040;-64
2023/08/10 11:24:51;;;;;;;1.73;1.05;;;;;;;;;;4938033;28;20056;-68
2023/08/10 11:27:23;;;;;;;5.25;1.20;;;;;;;;;;5011797;28;20041;-68
2023/08/10 11:29:55;;;;;;;6.13;1.20;;;;;;;;;;5021089;28;20093;-64
2023/08/10 11:32:24;;;;;;;3.28;1.30;;;;;;;;;;5013879;28;20053;-68
2023/08/10 11:34:53;;;;;;;3.20;1.50;;;;;;;;;;5017042;28;20085;-65
2023/08/10 11:37:29;;;;;;;3.47;1.40;;;;;;;;;;5011691;28;20073;-70
2023/08/10 11:40:11;;;;;;;3.45;1.30;;;;;;;;;;5038850;28;20061;-67
2023/08/10 11:42:38;;;;;;;4.63;1.40;;;;;;;;;;5031057;28;20891;-66
2023/08/10 11:45:11;;;;;;;2.05;1.08;;;;;;;;;;4993283;28;20062;-66
2023/08/10 11:47:45;;;;;;;3.13;1.58;;;;;;;;;;5013694;28;20054;-72
2023/08/10 11:50:16;;;;;;;3.10;1.35;;;;;;;;;;5003805;28;20058;-71
2023/08/10 11:52:45;;;;;;;4.97;1.08;;;;;;;;;;5014384;28;20070;-66
2023/08/10 11:55:16;;;;;;;3.15;1.45;;;;;;;;;;4963344;28;20058;-70
2023/08/10 11:57:46;;;;;;;4.72;1.50;;;;;;;;;;5015386;28;20260;-63
2023/08/10 12:00:22;;;;;;;3.13;1.35;;;;;;;;;;5016365;28;20088;-72
2023/08/10 12:03:06;;;;;;;2.85;1.38;;;;;;;;;;5022179;28;20049;-69
2023/08/10 12:05:45;;;;;;;3.50;1.52;;;;;;;;;;4992823;28;20143;-72
2023/08/10 12:08:19;;;;;;;3.97;1.15;;;;;;;;;;5032708;28;20053;-73
2023/08/10 12:10:59;;;;;;;3.03;1.20;;;;;;;;;;5021195;28;20064;-71
2023/08/10 12:13:27;;;;;;;4.43;1.45;;;;;;;;;;5022657;28;20053;-66
2023/08/10 12:15:55;;;;;;;2.05;1.10;;;;;;;;;;4990283;28;20044;-69
2023/08/10 12:18:26;;;;;;;3.10;1.55;;;;;;;;;;5027528;28;20060;-67
2023/08/10 12:20:54;;;;;;;2.80;1.40;;;;;;;;;;5035079;28;20054;-74
2023/08/10 12:23:22;;;;;;;1.17;1.05;;;;;;;;;;5040327;28;20111;-70
2023/08/10 12:25:50;;;;;;;4.87;1.23;;;;;;;;;;5015853;28;20049;-73
2023/08/10 12:28:20;;;;;;;2.00;1.20;;;;;;;;;;5017054;28;20092;-69
2023/08/10 12:30:48;;;;;;;2.50;1.30;;;;;;;;;;5020530;28;20093;-72
2023/08/10 12:33:26;;;;;;;3.80;1.40;;;;;;;;;;5037066;28;20053;-66
2023/08/10 12:35:57;;;;;;;3.85;1.17;;;;;;;;;;4969784;28;20061;-66
2023/08/10 12:38:24;;;;;;;5.55;1.40;;;;;;;;;;5009747;28;20056;-71
2023/08/10 12:40:51;;;;;;;2.15;1.25;;;;;;;;;;5019786;28;20052;-68
2023/08/10 12:43:20;;;;;;;4.47;1.70;;;;;;;;;;5022147;28;20143;-70
2023/08/10 12:45:46;;;;;;;4.05;1.60;;;;;;;;;;5015159;28;20053;-66
2023/08/10 12:48:15;;;;;;;3.65;1.48;;;;;;;;;;5012907;28;20049;-68
2023/08/10 12:50:43;;;;;;;5.57;1.50;;;;;;;;;;5013321;28;20062;-67
2023/08/10 12:53:10;;;;;;;5.38;1.50;;;;;;;;;;5000830;28;20057;-73
2023/08/10 12:55:37;;;;;;;4.53;1.60;;;;;;;;;;5003357;28;20058;-67
2023/08/10 12:58:14;;;;;;;3.22;1.35;;;;;;;;;;5035704;28;20131;-70
2023/08/10 13:00:41;;;;;;;4.13;1.40;;;;;;;;;;5041734;28;20060;-66
2023/08/10 13:03:12;;;;;;;5.22;1.90;;;;;;;;;;5041120;28;20052;-71
2023/08/10 13:05:39;;;;;;;4.53;1.75;;;;;;;;;;5038366;28;20091;-68
2023/08/10 13:08:08;;;;;;;5.32;1.27;;;;;;;;;;5023551;28;20059;-72
2023/08/10 13:10:35;;;;;;;2.97;1.30;;;;;;;;;;5022370;28;20037;-64
2023/08/10 13:13:04;;;;;;;2.78;1.30;;;;;;;;;;5020407;28;20057;-67
2023/08/10 13:15:31;;;;;;;10.05;4.63;;;;;;;;;;5017854;28;20068;-63
2023/08/10 13:17:57;;;;;;;7.53;2.35;;;;;;;;;;5019968;28;20394;-67
2023/08/10 13:20:24;;;;;;;5.05;1.80;;;;;;;;;;5014337;28;20151;-74
2023/08/10 13:22:53;;;;;;;2.85;1.48;;;;;;;;;;5021442;28;20073;-66
2023/08/10 13:25:22;;;;;;;2.50;1.27;;;;;;;;;;5017690;28;20069;-64
2023/08/10 13:27:48;;;;;;;;;;;;;;;;;;5015081;28;20061;-71
2023/08/10 13:30:17;;;;;;;4.13;1.27;;;;;;;;;;5013285;28;19921;-68
2023/08/10 13:32:43;;;;;;;2.92;1.23;;;;;;;;;;5042357;28;20056;-72
2023/08/10 13:35:10;;;;;;;3.80;1.58;;;;;;;;;;5019199;28;20061;-71
2023/08/10 13:37:38;;;;;;;4.35;1.45;;;;;;;;;;5039013;28;20138;-72
2023/08/10 13:40:09;;;;;;;3.85;1.23;;;;;;;;;;5041580;28;20144;-73
2023/08/10 13:42:37;;;;;;;4.80;1.20;;;;;;;;;;5036078;28;20061;-71
2023/08/10 13:45:09;;;;;;;5.05;1.35;;;;;;;;;;5036804;28;20115;-72
2023/08/10 13:47:38;;;;;;;5.72;1.35;;;;;;;;;;5039744;28;20060;-73
2023/08/10 13:50:08;;;;;;;4.32;1.60;;;;;;;;;;5041267;28;20045;-69
2023/08/10 13:52:35;;;;;;;3.60;1.50;;;;;;;;;;5038092;28;20049;-68
2023/08/10 13:55:05;;;;;;;3.33;1.65;;;;;;;;;;5029367;28;20123;-70
2023/08/10 13:57:33;;;;;;;4.07;1.58;;;;;;;;;;5046492;28;20049;-69
2023/08/10 14:00:02;;;;;;;3.60;1.60;;;;;;;;;;5021303;28;20060;-68
2023/08/10 14:02:28;;;;;;;8.00;3.22;;;;;;;;;;5010970;28;20072;-73
2023/08/10 14:04:55;;;;;;;6.57;2.65;;;;;;;;;;5017659;28;20057;-67
2023/08/10 14:07:22;;;;;;;5.43;2.10;;;;;;;;;;4997069;28;20148;-66
2023/08/10 14:09:49;;;;;;;2.80;1.52;;;;;;;;;;5022231;28;20053;-74
2023/08/10 14:12:18;;;;;;;3.17;1.50;;;;;;;;;;5019961;28;20038;-69
2023/08/10 14:14:47;;;;;;;4.93;1.60;;;;;;;;;;5020956;28;20080;-69
2023/08/10 14:17:15;;;;;;;3.58;1.48;;;;;;;;;;4997813;28;20090;-71
2023/08/10 14:19:41;;;;;;;3.25;1.30;;;;;;;;;;5020218;28;20053;-69
2023/08/10 14:22:08;;;;;;;3.47;1.33;;;;;;;;;;5022080;28;20107;-73
2023/08/10 14:24:35;;;;;;;3.25;1.80;;;;;;;;;;5016569;28;20065;-67
2023/08/10 14:27:02;;;;;;;5.90;1.70;;;;;;;;;;5039806;28;20051;-68
2023/08/10 14:29:29;;;;;;;3.28;1.85;;;;;;;;;;5045997;28;20061;-67
2023/08/10 14:32:02;;;;;;;2.65;1.33;;;;;;;;;;5027891;28;20080;-69
2023/08/10 14:34:30;;;;;;;2.50;1.35;;;;;;;;;;5016083;28;20112;-69
2023/08/10 14:36:57;;;;;;;4.35;1.73;;;;;;;;;;5033868;28;20132;-73
2023/08/10 14:39:23;;;;;;;5.50;1.60;;;;;;;;;;5043000;28;20107;-64
2023/08/10 14:41:50;;;;;;;3.95;1.60;;;;;;;;;;5045257;28;20119;-69
2023/08/10 14:44:17;;;;;;;2.92;1.38;;;;;;;;;;5037869;28;20061;-69
2023/08/10 14:46:44;;;;;;;2.50;1.30;;;;;;;;;;5042014;28;20069;-70
2023/08/10 14:49:13;;;;;;;2.03;1.13;;;;;;;;;;5044198;28;20065;-65
2023/08/10 14:51:41;;;;;;;2.67;1.30;;;;;;;;;;5043976;28;20064;-71
2023/08/10 14:54:08;;;;;;;3.25;1.67;;;;;;;;;;5039009;28;20080;-70
2023/08/10 14:56:37;;;;;;;5.18;1.42;;;;;;;;;;5034318;28;20905;-67
2023/08/10 14:59:04;;;;;;;4.47;1.67;;;;;;;;;;5027010;28;20054;-71
2023/08/10 15:01:31;;;;;;;2.95;1.27;;;;;;;;;;5021345;28;20045;-67
2023/08/10 15:03:57;;;;;;;2.42;1.25;;;;;;;;;;5022004;28;20060;-66
2023/08/10 15:06:24;;;;;;;3.08;1.55;;;;;;;;;;4976458;28;20161;-71
2023/08/10 15:08:52;;;;;;;2.67;1.30;;;;;;;;;;5023046;28;20114;-70